sensor_id;sensor_type;location;lat;lon;timestamp;pressure;altitude;pressure_sealevel;temperature;humidity
70011;BME280;59543;37.950;-122.338;2023-02-02T00:01:21;101991.13;;;12.52;44.23
70011;BME280;59543;37.950;-122.338;2023-02-02T00:03:47;102000.28;;;12.61;44.29
70011;BME280;59543;37.950;-122.338;2023-02-02T00:06:15;101990.78;;;12.45;44.21
70011;BME280;59543;37.950;-122.338;2023-02-02T00:08:41;101999.13;;;12.42;44.29
70011;BME280;59543;37.950;-122.338;2023-02-02T00:11:07;101997.75;;;12.27;44.21
70011;BME280;59543;37.950;-122.338;2023-02-02T00:13:33;102008.19;;;12.52;44.23
70011;BME280;59543;37.950;-122.338;2023-02-02T00:16:19;102012.38;;;12.45;44.13
70011;BME280;59543;37.950;-122.338;2023-02-02T00:18:45;102018.94;;;12.31;44.71
70011;BME280;59543;37.950;-122.338;2023-02-02T00:21:10;102028.38;;;12.37;44.63
70011;BME280;59543;37.950;-122.338;2023-02-02T00:23:36;102030.13;;;12.27;44.76
70011;BME280;59543;37.950;-122.338;2023-02-02T00:26:02;102031.63;;;12.20;45.14
70011;BME280;59543;37.950;-122.338;2023-02-02T00:28:28;102028.53;;;12.24;45.06
70011;BME280;59543;37.950;-122.338;2023-02-02T00:30:54;102034.16;;;12.32;45.00
70011;BME280;59543;37.950;-122.338;2023-02-02T00:33:19;102035.09;;;12.10;45.65
70011;BME280;59543;37.950;-122.338;2023-02-02T00:35:45;102034.34;;;12.08;45.84
70011;BME280;59543;37.950;-122.338;2023-02-02T00:38:11;102030.78;;;12.19;45.81
70011;BME280;59543;37.950;-122.338;2023-02-02T00:40:37;102031.75;;;12.18;45.98
70011;BME280;59543;37.950;-122.338;2023-02-02T00:43:03;102036.22;;;11.97;46.00
70011;BME280;59543;37.950;-122.338;2023-02-02T00:45:29;102029.38;;;11.81;46.54
70011;BME280;59543;37.950;-122.338;2023-02-02T00:47:55;102031.81;;;11.73;47.00
70011;BME280;59543;37.950;-122.338;2023-02-02T00:50:21;102039.28;;;11.81;47.16
70011;BME280;59543;37.950;-122.338;2023-02-02T00:52:47;102039.69;;;11.65;47.43
70011;BME280;59543;37.950;-122.338;2023-02-02T00:55:13;102034.06;;;11.57;47.88
70011;BME280;59543;37.950;-122.338;2023-02-02T00:57:40;102042.75;;;11.49;48.50
70011;BME280;59543;37.950;-122.338;2023-02-02T01:00:06;102035.28;;;11.53;48.73
70011;BME280;59543;37.950;-122.338;2023-02-02T01:02:33;102046.91;;;11.31;49.09
70011;BME280;59543;37.950;-122.338;2023-02-02T01:04:59;102040.91;;;11.27;49.37
70011;BME280;59543;37.950;-122.338;2023-02-02T01:07:25;102033.19;;;11.34;49.42
70011;BME280;59543;37.950;-122.338;2023-02-02T01:09:51;102047.66;;;11.33;49.46
70011;BME280;59543;37.950;-122.338;2023-02-02T01:12:17;102047.78;;;11.20;50.12
70011;BME280;59543;37.950;-122.338;2023-02-02T01:14:42;102046.56;;;11.47;49.41
70011;BME280;59543;37.950;-122.338;2023-02-02T01:17:08;102038.94;;;11.18;50.00
70011;BME280;59543;37.950;-122.338;2023-02-02T01:19:34;102044.97;;;11.10;50.35
70011;BME280;59543;37.950;-122.338;2023-02-02T01:22:00;102040.41;;;10.99;50.57
70011;BME280;59543;37.950;-122.338;2023-02-02T01:24:26;102041.00;;;11.03;50.65
70011;BME280;59543;37.950;-122.338;2023-02-02T01:26:52;102029.50;;;10.90;51.16
70011;BME280;59543;37.950;-122.338;2023-02-02T01:29:18;102029.28;;;11.04;50.77
70011;BME280;59543;37.950;-122.338;2023-02-02T01:31:44;102034.88;;;10.90;51.27
70011;BME280;59543;37.950;-122.338;2023-02-02T01:34:10;102037.59;;;10.90;51.39
70011;BME280;59543;37.950;-122.338;2023-02-02T01:36:36;102037.72;;;10.99;51.38
70011;BME280;59543;37.950;-122.338;2023-02-02T01:39:02;102029.13;;;10.94;50.93
70011;BME280;59543;37.950;-122.338;2023-02-02T01:41:28;102036.81;;;10.76;51.78
70011;BME280;59543;37.950;-122.338;2023-02-02T01:43:56;102035.06;;;10.64;52.24
70011;BME280;59543;37.950;-122.338;2023-02-02T01:46:29;102029.66;;;10.53;52.34
70011;BME280;59543;37.950;-122.338;2023-02-02T01:48:57;102038.16;;;10.36;52.56
70011;BME280;59543;37.950;-122.338;2023-02-02T01:51:26;102031.25;;;10.32;52.95
70011;BME280;59543;37.950;-122.338;2023-02-02T01:53:55;102032.03;;;10.34;53.27
70011;BME280;59543;37.950;-122.338;2023-02-02T01:56:42;102032.69;;;10.24;53.31
70011;BME280;59543;37.950;-122.338;2023-02-02T01:59:09;102024.97;;;9.96;54.26
70011;BME280;59543;37.950;-122.338;2023-02-02T02:01:35;102035.19;;;9.91;54.17
70011;BME280;59543;37.950;-122.338;2023-02-02T02:04:01;102035.66;;;10.08;53.90
70011;BME280;59543;37.950;-122.338;2023-02-02T02:06:27;102035.25;;;9.78;54.08
70011;BME280;59543;37.950;-122.338;2023-02-02T02:11:19;102033.31;;;9.67;54.51
70011;BME280;59543;37.950;-122.338;2023-02-02T02:13:45;102029.16;;;9.63;54.05
70011;BME280;59543;37.950;-122.338;2023-02-02T02:16:45;102031.63;;;9.66;53.99
70011;BME280;59543;37.950;-122.338;2023-02-02T02:22:01;102034.22;;;9.55;54.06
70011;BME280;59543;37.950;-122.338;2023-02-02T02:33:15;102038.66;;;9.43;54.36
70011;BME280;59543;37.950;-122.338;2023-02-02T02:40:46;102039.31;;;9.21;55.49
70011;BME280;59543;37.950;-122.338;2023-02-02T02:43:16;102049.72;;;9.26;54.93
70011;BME280;59543;37.950;-122.338;2023-02-02T02:45:43;102048.88;;;9.25;54.70
70011;BME280;59543;37.950;-122.338;2023-02-02T02:48:09;102048.13;;;9.10;55.55
70011;BME280;59543;37.950;-122.338;2023-02-02T02:50:36;102062.59;;;9.08;55.49
70011;BME280;59543;37.950;-122.338;2023-02-02T02:53:04;102068.53;;;9.13;55.30
70011;BME280;59543;37.950;-122.338;2023-02-02T02:55:32;102065.84;;;9.13;55.29
70011;BME280;59543;37.950;-122.338;2023-02-02T02:58:04;102075.06;;;9.34;54.71
70011;BME280;59543;37.950;-122.338;2023-02-02T03:00:38;102084.63;;;9.13;55.12
70011;BME280;59543;37.950;-122.338;2023-02-02T03:10:42;102087.53;;;8.97;55.67
70011;BME280;59543;37.950;-122.338;2023-02-02T03:13:09;102090.28;;;8.83;56.46
70011;BME280;59543;37.950;-122.338;2023-02-02T03:15:36;102099.97;;;8.98;56.12
70011;BME280;59543;37.950;-122.338;2023-02-02T03:18:04;102093.84;;;8.96;56.16
70011;BME280;59543;37.950;-122.338;2023-02-02T03:20:30;102096.84;;;8.91;56.21
70011;BME280;59543;37.950;-122.338;2023-02-02T03:22:56;102090.78;;;8.75;56.70
70011;BME280;59543;37.950;-122.338;2023-02-02T03:25:22;102081.69;;;8.78;56.54
70011;BME280;59543;37.950;-122.338;2023-02-02T03:27:48;102090.78;;;8.75;56.69
70011;BME280;59543;37.950;-122.338;2023-02-02T03:30:14;102092.41;;;8.65;57.34
70011;BME280;59543;37.950;-122.338;2023-02-02T03:32:40;102097.47;;;8.69;57.51
70011;BME280;59543;37.950;-122.338;2023-02-02T03:35:06;102096.34;;;8.59;57.49
70011;BME280;59543;37.950;-122.338;2023-02-02T03:37:33;102092.25;;;8.54;57.53
70011;BME280;59543;37.950;-122.338;2023-02-02T03:39:59;102095.56;;;8.57;57.81
70011;BME280;59543;37.950;-122.338;2023-02-02T03:42:25;102092.25;;;8.54;57.94
70011;BME280;59543;37.950;-122.338;2023-02-02T03:44:51;102099.03;;;8.59;57.31
70011;BME280;59543;37.950;-122.338;2023-02-02T03:47:17;102095.28;;;8.62;57.16
70011;BME280;59543;37.950;-122.338;2023-02-02T03:49:42;102097.47;;;8.69;57.31
70011;BME280;59543;37.950;-122.338;2023-02-02T03:52:08;102102.81;;;8.69;57.51
70011;BME280;59543;37.950;-122.338;2023-02-02T03:54:34;102106.44;;;8.56;57.46
70011;BME280;59543;37.950;-122.338;2023-02-02T03:57:00;102107.94;;;8.60;57.35
70011;BME280;59543;37.950;-122.338;2023-02-02T03:59:26;102109.66;;;8.61;57.69
70011;BME280;59543;37.950;-122.338;2023-02-02T04:01:51;102105.16;;;8.61;57.64
70011;BME280;59543;37.950;-122.338;2023-02-02T04:04:17;102111.78;;;8.56;57.77
70011;BME280;59543;37.950;-122.338;2023-02-02T04:06:43;102107.13;;;8.45;57.54
70011;BME280;59543;37.950;-122.338;2023-02-02T04:09:09;102107.06;;;8.32;57.76
70011;BME280;59543;37.950;-122.338;2023-02-02T04:11:35;102111.44;;;8.33;57.90
70011;BME280;59543;37.950;-122.338;2023-02-02T04:14:00;102112.97;;;8.37;57.86
70011;BME280;59543;37.950;-122.338;2023-02-02T04:16:26;102112.50;;;8.45;57.35
70011;BME280;59543;37.950;-122.338;2023-02-02T04:18:52;102120.72;;;8.42;57.51
70011;BME280;59543;37.950;-122.338;2023-02-02T04:21:18;102114.91;;;8.35;57.75
70011;BME280;59543;37.950;-122.338;2023-02-02T04:23:44;102117.41;;;8.38;58.04
70011;BME280;59543;37.950;-122.338;2023-02-02T04:26:09;102124.09;;;8.31;57.95
70011;BME280;59543;37.950;-122.338;2023-02-02T04:28:35;102123.53;;;8.26;57.76
70011;BME280;59543;37.950;-122.338;2023-02-02T04:31:01;102125.31;;;8.13;58.11
70011;BME280;59543;37.950;-122.338;2023-02-02T04:33:27;102124.75;;;8.35;57.70
70011;BME280;59543;37.950;-122.338;2023-02-02T04:35:54;102128.69;;;8.43;57.49
70011;BME280;59543;37.950;-122.338;2023-02-02T04:38:20;102123.97;;;8.06;58.35
70011;BME280;59543;37.950;-122.338;2023-02-02T04:40:46;102119.84;;;8.00;58.61
70011;BME280;59543;37.950;-122.338;2023-02-02T04:43:12;102115.59;;;7.97;58.91
70011;BME280;59543;37.950;-122.338;2023-02-02T04:45:38;102121.34;;;7.63;59.55
70011;BME280;59543;37.950;-122.338;2023-02-02T04:48:04;102113.41;;;7.47;60.32
70011;BME280;59543;37.950;-122.338;2023-02-02T04:50:30;102118.09;;;7.57;60.03
70011;BME280;59543;37.950;-122.338;2023-02-02T04:52:56;102117.41;;;7.54;59.93
70011;BME280;59543;37.950;-122.338;2023-02-02T04:55:22;102126.41;;;7.53;60.04
70011;BME280;59543;37.950;-122.338;2023-02-02T04:57:48;102121.34;;;7.77;59.43
70011;BME280;59543;37.950;-122.338;2023-02-02T05:00:14;102123.44;;;7.86;58.77
70011;BME280;59543;37.950;-122.338;2023-02-02T05:02:40;102125.25;;;7.86;60.29
70011;BME280;59543;37.950;-122.338;2023-02-02T05:05:07;102129.19;;;7.80;60.46
70011;BME280;59543;37.950;-122.338;2023-02-02T05:07:34;102141.22;;;7.87;60.29
70011;BME280;59543;37.950;-122.338;2023-02-02T05:09:59;102136.25;;;7.81;60.33
70011;BME280;59543;37.950;-122.338;2023-02-02T05:12:25;102141.81;;;7.64;60.61
70011;BME280;59543;37.950;-122.338;2023-02-02T05:14:51;102135.19;;;7.55;60.79
70011;BME280;59543;37.950;-122.338;2023-02-02T05:17:17;102126.50;;;7.51;60.82
70011;BME280;59543;37.950;-122.338;2023-02-02T05:19:43;102135.69;;;7.47;60.92
70011;BME280;59543;37.950;-122.338;2023-02-02T05:22:09;102145.53;;;7.32;61.20
70011;BME280;59543;37.950;-122.338;2023-02-02T05:24:35;102141.88;;;7.33;61.90
70011;BME280;59543;37.950;-122.338;2023-02-02T05:27:00;102140.09;;;7.34;62.08
70011;BME280;59543;37.950;-122.338;2023-02-02T05:29:26;102152.41;;;7.22;62.12
70011;BME280;59543;37.950;-122.338;2023-02-02T05:31:52;102144.94;;;7.13;62.45
70011;BME280;59543;37.950;-122.338;2023-02-02T05:34:18;102154.25;;;7.06;62.71
70011;BME280;59543;37.950;-122.338;2023-02-02T05:36:45;102152.06;;;6.98;62.83
70011;BME280;59543;37.950;-122.338;2023-02-02T05:39:10;102150.31;;;6.97;62.64
70011;BME280;59543;37.950;-122.338;2023-02-02T05:41:36;102152.84;;;7.15;62.42
70011;BME280;59543;37.950;-122.338;2023-02-02T05:44:02;102144.78;;;7.00;62.68
70011;BME280;59543;37.950;-122.338;2023-02-02T05:46:28;102155.81;;;7.10;62.10
70011;BME280;59543;37.950;-122.338;2023-02-02T05:48:54;102151.69;;;7.19;61.58
70011;BME280;59543;37.950;-122.338;2023-02-02T05:51:24;102155.44;;;7.30;61.27
70011;BME280;59543;37.950;-122.338;2023-02-02T05:53:52;102168.75;;;7.32;61.15
70011;BME280;59543;37.950;-122.338;2023-02-02T05:56:18;102169.91;;;7.42;60.75
70011;BME280;59543;37.950;-122.338;2023-02-02T05:58:43;102171.16;;;7.51;60.43
70011;BME280;59543;37.950;-122.338;2023-02-02T06:01:11;102170.00;;;7.55;60.02
70011;BME280;59543;37.950;-122.338;2023-02-02T06:03:37;102174.25;;;7.59;60.13
70011;BME280;59543;37.950;-122.338;2023-02-02T06:06:03;102181.22;;;7.76;59.47
70011;BME280;59543;37.950;-122.338;2023-02-02T06:08:29;102176.25;;;7.70;59.62
70011;BME280;59543;37.950;-122.338;2023-02-02T06:10:55;102175.69;;;7.65;59.58
70011;BME280;59543;37.950;-122.338;2023-02-02T06:13:21;102189.81;;;7.67;59.54
70011;BME280;59543;37.950;-122.338;2023-02-02T06:15:46;102181.78;;;7.52;60.01
70011;BME280;59543;37.950;-122.338;2023-02-02T06:18:12;102186.94;;;7.41;60.23
70011;BME280;59543;37.950;-122.338;2023-02-02T06:20:38;102182.81;;;7.36;60.44
70011;BME280;59543;37.950;-122.338;2023-02-02T06:23:04;102180.06;;;7.37;60.45
70011;BME280;59543;37.950;-122.338;2023-02-02T06:25:30;102193.22;;;7.26;60.83
70011;BME280;59543;37.950;-122.338;2023-02-02T06:27:56;102190.72;;;7.23;60.88
70011;BME280;59543;37.950;-122.338;2023-02-02T06:30:22;102191.84;;;7.19;61.09
70011;BME280;59543;37.950;-122.338;2023-02-02T06:32:48;102188.78;;;7.10;61.01
70011;BME280;59543;37.950;-122.338;2023-02-02T06:35:14;102196.22;;;7.05;61.40
70011;BME280;59543;37.950;-122.338;2023-02-02T06:37:40;102190.94;;;7.04;61.38
70011;BME280;59543;37.950;-122.338;2023-02-02T06:40:06;102193.28;;;6.94;61.57
70011;BME280;59543;37.950;-122.338;2023-02-02T06:42:33;102183.91;;;6.87;61.94
70011;BME280;59543;37.950;-122.338;2023-02-02T06:44:59;102193.00;;;6.69;62.70
70011;BME280;59543;37.950;-122.338;2023-02-02T06:47:24;102194.56;;;6.57;62.98
70011;BME280;59543;37.950;-122.338;2023-02-02T06:49:50;102201.03;;;6.53;63.25
70011;BME280;59543;37.950;-122.338;2023-02-02T06:52:16;102208.88;;;6.72;62.87
70011;BME280;59543;37.950;-122.338;2023-02-02T06:54:42;102208.97;;;6.70;62.97
70011;BME280;59543;37.950;-122.338;2023-02-02T06:57:08;102214.06;;;6.75;62.77
70011;BME280;59543;37.950;-122.338;2023-02-02T06:59:33;102208.59;;;6.92;62.38
70011;BME280;59543;37.950;-122.338;2023-02-02T07:01:59;102219.28;;;6.92;62.31
70011;BME280;59543;37.950;-122.338;2023-02-02T07:04:25;102219.91;;;6.81;62.32
70011;BME280;59543;37.950;-122.338;2023-02-02T07:06:51;102221.78;;;6.79;62.36
70011;BME280;59543;37.950;-122.338;2023-02-02T07:09:17;102224.81;;;6.73;62.57
70011;BME280;59543;37.950;-122.338;2023-02-02T07:11:43;102220.84;;;6.64;62.81
70011;BME280;59543;37.950;-122.338;2023-02-02T07:14:09;102220.09;;;6.62;62.77
70011;BME280;59543;37.950;-122.338;2023-02-02T07:16:35;102220.47;;;6.56;62.99
70011;BME280;59543;37.950;-122.338;2023-02-02T07:19:01;102226.16;;;6.50;63.57
70011;BME280;59543;37.950;-122.338;2023-02-02T07:21:27;102223.22;;;6.39;64.04
70011;BME280;59543;37.950;-122.338;2023-02-02T07:23:54;102226.84;;;6.38;63.99
70011;BME280;59543;37.950;-122.338;2023-02-02T07:26:20;102221.50;;;6.38;63.89
70011;BME280;59543;37.950;-122.338;2023-02-02T07:28:45;102223.38;;;6.36;63.82
70011;BME280;59543;37.950;-122.338;2023-02-02T07:31:12;102219.75;;;6.37;63.54
70011;BME280;59543;37.950;-122.338;2023-02-02T07:33:42;102235.09;;;6.33;63.75
70011;BME280;59543;37.950;-122.338;2023-02-02T07:36:09;102226.75;;;6.39;63.71
70011;BME280;59543;37.950;-122.338;2023-02-02T07:38:35;102222.06;;;6.27;63.96
70011;BME280;59543;37.950;-122.338;2023-02-02T07:41:01;102228.44;;;6.25;64.15
70011;BME280;59543;37.950;-122.338;2023-02-02T07:43:27;102219.13;;;6.16;64.32
70011;BME280;59543;37.950;-122.338;2023-02-02T07:45:53;102218.94;;;6.03;65.17
70011;BME280;59543;37.950;-122.338;2023-02-02T07:48:20;102213.94;;;5.97;65.00
70011;BME280;59543;37.950;-122.338;2023-02-02T07:50:46;102206.09;;;5.94;64.80
70011;BME280;59543;37.950;-122.338;2023-02-02T07:53:12;102202.28;;;5.98;65.04
70011;BME280;59543;37.950;-122.338;2023-02-02T07:55:37;102208.50;;;5.99;64.92
70011;BME280;59543;37.950;-122.338;2023-02-02T07:58:03;102205.75;;;6.00;65.24
70011;BME280;59543;37.950;-122.338;2023-02-02T08:00:29;102208.44;;;5.83;65.25
70011;BME280;59543;37.950;-122.338;2023-02-02T08:02:55;102212.38;;;5.76;65.32
70011;BME280;59543;37.950;-122.338;2023-02-02T08:05:21;102209.19;;;5.69;65.04
70011;BME280;59543;37.950;-122.338;2023-02-02T08:07:47;102208.72;;;5.61;65.56
70011;BME280;59543;37.950;-122.338;2023-02-02T08:10:12;102214.28;;;5.56;65.07
70011;BME280;59543;37.950;-122.338;2023-02-02T08:12:38;102213.06;;;5.46;65.74
70011;BME280;59543;37.950;-122.338;2023-02-02T08:15:04;102217.75;;;5.41;65.38
70011;BME280;59543;37.950;-122.338;2023-02-02T08:17:30;102208.59;;;5.29;66.34
70011;BME280;59543;37.950;-122.338;2023-02-02T08:19:56;102206.97;;;5.26;65.97
70011;BME280;59543;37.950;-122.338;2023-02-02T08:22:22;102209.84;;;5.22;66.39
70011;BME280;59543;37.950;-122.338;2023-02-02T08:24:48;102205.03;;;5.11;66.87
70011;BME280;59543;37.950;-122.338;2023-02-02T08:27:14;102207.56;;;5.14;67.41
70011;BME280;59543;37.950;-122.338;2023-02-02T08:29:41;102205.78;;;5.15;67.34
70011;BME280;59543;37.950;-122.338;2023-02-02T08:32:07;102213.00;;;5.13;67.91
70011;BME280;59543;37.950;-122.338;2023-02-02T08:34:33;102216.13;;;5.03;67.88
70011;BME280;59543;37.950;-122.338;2023-02-02T08:37:01;102213.75;;;4.97;67.87
70011;BME280;59543;37.950;-122.338;2023-02-02T08:39:27;102214.94;;;4.92;68.00
70011;BME280;59543;37.950;-122.338;2023-02-02T08:41:54;102209.19;;;4.82;69.00
70011;BME280;59543;37.950;-122.338;2023-02-02T08:44:20;102224.19;;;4.85;68.48
70011;BME280;59543;37.950;-122.338;2023-02-02T08:46:45;102219.06;;;4.80;69.50
70011;BME280;59543;37.950;-122.338;2023-02-02T08:49:11;102218.09;;;5.00;69.02
70011;BME280;59543;37.950;-122.338;2023-02-02T08:51:38;102220.41;;;4.89;69.28
70011;BME280;59543;37.950;-122.338;2023-02-02T08:54:03;102217.75;;;4.89;68.97
70011;BME280;59543;37.950;-122.338;2023-02-02T08:56:29;102222.22;;;4.88;69.68
70011;BME280;59543;37.950;-122.338;2023-02-02T08:58:56;102223.06;;;4.89;69.81
70011;BME280;59543;37.950;-122.338;2023-02-02T09:01:28;102230.28;;;4.87;69.78
70011;BME280;59543;37.950;-122.338;2023-02-02T09:03:54;102226.53;;;4.91;70.23
70011;BME280;59543;37.950;-122.338;2023-02-02T09:06:20;102229.13;;;4.92;69.94
70011;BME280;59543;37.950;-122.338;2023-02-02T09:08:48;102235.31;;;4.93;69.52
70011;BME280;59543;37.950;-122.338;2023-02-02T09:11:15;102234.53;;;4.91;69.02
70011;BME280;59543;37.950;-122.338;2023-02-02T09:13:42;102234.53;;;4.91;69.25
70011;BME280;59543;37.950;-122.338;2023-02-02T09:16:12;102232.72;;;4.91;68.88
70011;BME280;59543;37.950;-122.338;2023-02-02T09:18:39;102223.00;;;4.90;69.45
70011;BME280;59543;37.950;-122.338;2023-02-02T09:21:05;102234.75;;;4.86;68.85
70011;BME280;59543;37.950;-122.338;2023-02-02T09:23:33;102231.44;;;4.81;69.19
70011;BME280;59543;37.950;-122.338;2023-02-02T09:28:34;102234.41;;;4.75;69.67
70011;BME280;59543;37.950;-122.338;2023-02-02T09:31:01;102233.22;;;4.99;69.25
70011;BME280;59543;37.950;-122.338;2023-02-02T09:33:26;102232.34;;;4.81;69.24
70011;BME280;59543;37.950;-122.338;2023-02-02T09:35:52;102233.94;;;4.67;69.39
70011;BME280;59543;37.950;-122.338;2023-02-02T09:38:18;102238.63;;;4.62;69.19
70011;BME280;59543;37.950;-122.338;2023-02-02T09:40:44;102234.53;;;4.54;69.25
70011;BME280;59543;37.950;-122.338;2023-02-02T09:45:46;102238.78;;;4.58;69.18
70011;BME280;59543;37.950;-122.338;2023-02-02T09:48:23;102233.59;;;4.55;69.59
70011;BME280;59543;37.950;-122.338;2023-02-02T09:50:55;102243.38;;;4.55;70.28
70011;BME280;59543;37.950;-122.338;2023-02-02T09:55:51;102238.91;;;4.55;71.19
70011;BME280;59543;37.950;-122.338;2023-02-02T10:06:21;102243.81;;;4.65;70.92
70011;BME280;59543;37.950;-122.338;2023-02-02T10:08:54;102252.53;;;4.49;71.29
70011;BME280;59543;37.950;-122.338;2023-02-02T10:11:55;102247.19;;;4.68;70.84
70011;BME280;59543;37.950;-122.338;2023-02-02T10:16:51;102247.06;;;4.52;71.36
70011;BME280;59543;37.950;-122.338;2023-02-02T10:19:18;102247.19;;;4.49;71.27
70011;BME280;59543;37.950;-122.338;2023-02-02T10:24:17;102248.06;;;4.50;71.53
70011;BME280;59543;37.950;-122.338;2023-02-02T10:26:45;102247.56;;;4.42;71.52
70011;BME280;59543;37.950;-122.338;2023-02-02T10:31:43;102234.22;;;4.42;71.66
70011;BME280;59543;37.950;-122.338;2023-02-02T10:39:14;102233.16;;;4.27;72.05
70011;BME280;59543;37.950;-122.338;2023-02-02T10:41:51;102228.72;;;4.27;71.90
70011;BME280;59543;37.950;-122.338;2023-02-02T10:46:56;102233.59;;;4.18;71.55
70011;BME280;59543;37.950;-122.338;2023-02-02T10:49:28;102225.97;;;4.29;71.40
70011;BME280;59543;37.950;-122.338;2023-02-02T10:57:23;102228.38;;;3.96;72.62
70011;BME280;59543;37.950;-122.338;2023-02-02T11:02:35;102230.28;;;4.12;72.05
70011;BME280;59543;37.950;-122.338;2023-02-02T11:05:01;102229.19;;;3.98;72.92
70011;BME280;59543;37.950;-122.338;2023-02-02T11:07:45;102221.63;;;4.26;72.30
70011;BME280;59543;37.950;-122.338;2023-02-02T11:10:11;102226.38;;;4.01;73.35
70011;BME280;59543;37.950;-122.338;2023-02-02T11:12:39;102223.22;;;4.11;72.95
70011;BME280;59543;37.950;-122.338;2023-02-02T11:15:07;102212.13;;;4.02;73.32
70011;BME280;59543;37.950;-122.338;2023-02-02T11:17:33;102217.59;;;3.99;74.02
70011;BME280;59543;37.950;-122.338;2023-02-02T11:19:59;102213.28;;;3.96;74.25
70011;BME280;59543;37.950;-122.338;2023-02-02T11:22:35;102221.63;;;3.88;74.57
70011;BME280;59543;37.950;-122.338;2023-02-02T11:25:24;102219.25;;;3.82;75.29
70011;BME280;59543;37.950;-122.338;2023-02-02T11:27:51;102221.13;;;3.60;75.21
70011;BME280;59543;37.950;-122.338;2023-02-02T11:32:43;102226.16;;;3.66;76.32
70011;BME280;59543;37.950;-122.338;2023-02-02T11:35:16;102229.78;;;3.65;76.19
70011;BME280;59543;37.950;-122.338;2023-02-02T11:38:28;102210.03;;;3.50;75.78
70011;BME280;59543;37.950;-122.338;2023-02-02T11:40:32;102218.53;;;3.58;76.29
70011;BME280;59543;37.950;-122.338;2023-02-02T11:42:59;102223.50;;;3.46;76.59
70011;BME280;59543;37.950;-122.338;2023-02-02T11:45:31;102218.06;;;3.49;77.06
70011;BME280;59543;37.950;-122.338;2023-02-02T11:48:03;102228.44;;;3.55;77.00
70011;BME280;59543;37.950;-122.338;2023-02-02T11:50:30;102228.84;;;3.46;76.03
70011;BME280;59543;37.950;-122.338;2023-02-02T11:52:56;102223.59;;;3.64;77.52
70011;BME280;59543;37.950;-122.338;2023-02-02T11:55:31;102230.09;;;3.37;77.38
70011;BME280;59543;37.950;-122.338;2023-02-02T11:58:14;102230.91;;;3.39;77.70
70011;BME280;59543;37.950;-122.338;2023-02-02T12:00:49;102233.50;;;3.40;77.55
70011;BME280;59543;37.950;-122.338;2023-02-02T12:03:29;102224.41;;;3.26;77.75
70011;BME280;59543;37.950;-122.338;2023-02-02T12:05:55;102220.13;;;3.21;79.11
70011;BME280;59543;37.950;-122.338;2023-02-02T12:08:22;102227.34;;;3.18;78.98
70011;BME280;59543;37.950;-122.338;2023-02-02T12:10:56;102226.84;;;3.30;78.13
70011;BME280;59543;37.950;-122.338;2023-02-02T12:18:40;102222.31;;;3.32;77.58
70011;BME280;59543;37.950;-122.338;2023-02-02T12:21:13;102223.31;;;3.30;77.38
70011;BME280;59543;37.950;-122.338;2023-02-02T12:26:23;102212.47;;;3.55;77.84
70011;BME280;59543;37.950;-122.338;2023-02-02T12:29:02;102227.91;;;3.47;77.29
70011;BME280;59543;37.950;-122.338;2023-02-02T12:34:03;102222.47;;;3.29;77.56
70011;BME280;59543;37.950;-122.338;2023-02-02T12:36:48;102223.97;;;3.14;77.91
70011;BME280;59543;37.950;-122.338;2023-02-02T12:47:14;102222.78;;;3.01;77.39
70011;BME280;59543;37.950;-122.338;2023-02-02T12:55:09;102213.56;;;2.88;77.74
70011;BME280;59543;37.950;-122.338;2023-02-02T12:57:43;102221.63;;;2.86;77.58
70011;BME280;59543;37.950;-122.338;2023-02-02T13:00:16;102221.78;;;2.82;78.26
70011;BME280;59543;37.950;-122.338;2023-02-02T13:10:45;102237.69;;;3.26;77.10
70011;BME280;59543;37.950;-122.338;2023-02-02T13:13:19;102233.50;;;3.20;76.78
70011;BME280;59543;37.950;-122.338;2023-02-02T13:15:49;102223.06;;;3.36;76.83
70011;BME280;59543;37.950;-122.338;2023-02-02T13:20:44;102227.97;;;3.45;76.45
70011;BME280;59543;37.950;-122.338;2023-02-02T13:23:20;102225.66;;;3.97;76.45
70011;BME280;59543;37.950;-122.338;2023-02-02T13:25:49;102223.69;;;4.21;74.92
70011;BME280;59543;37.950;-122.338;2023-02-02T13:28:31;102222.44;;;4.84;72.18
70011;BME280;59543;37.950;-122.338;2023-02-02T13:30:58;102219.06;;;4.80;72.79
70011;BME280;59543;37.950;-122.338;2023-02-02T13:33:29;102212.25;;;4.92;71.72
70011;BME280;59543;37.950;-122.338;2023-02-02T13:35:58;102212.44;;;5.06;71.27
70011;BME280;59543;37.950;-122.338;2023-02-02T13:38:27;102210.16;;;5.16;71.30
70011;BME280;59543;37.950;-122.338;2023-02-02T13:40:59;102212.91;;;5.32;69.99
70011;BME280;59543;37.950;-122.338;2023-02-02T13:43:31;102204.28;;;5.26;70.21
70011;BME280;59543;37.950;-122.338;2023-02-02T13:56:22;102194.66;;;6.08;67.07
70011;BME280;59543;37.950;-122.338;2023-02-02T14:01:39;102190.06;;;6.26;65.55
70011;BME280;59543;37.950;-122.338;2023-02-02T14:04:15;102192.25;;;6.19;65.88
70011;BME280;59543;37.950;-122.338;2023-02-02T14:06:51;102195.13;;;6.32;65.43
70011;BME280;59543;37.950;-122.338;2023-02-02T14:09:20;102198.38;;;6.37;65.09
70011;BME280;59543;37.950;-122.338;2023-02-02T14:11:51;102198.19;;;6.40;64.61
70011;BME280;59543;37.950;-122.338;2023-02-02T14:14:20;102198.53;;;6.66;64.01
70011;BME280;59543;37.950;-122.338;2023-02-02T14:17:49;102185.69;;;6.56;64.55
70011;BME280;59543;37.950;-122.338;2023-02-02T14:19:53;102186.63;;;6.55;64.04
70011;BME280;59543;37.950;-122.338;2023-02-02T14:22:36;102190.09;;;6.57;63.91
70011;BME280;59543;37.950;-122.338;2023-02-02T14:25:03;102191.63;;;6.61;63.73
70011;BME280;59543;37.950;-122.338;2023-02-02T14:27:58;102186.47;;;6.74;63.09